sensor_id;sensor_type;location;lat;lon;timestamp;pressure;altitude;pressure_sealevel;temperature;humidity
80124;BME280;69433;48.642;9.142;2023-05-01T00:02:20;96918.69;;;24.38;35.58
80124;BME280;69433;48.642;9.142;2023-05-01T00:04:45;96908.72;;;24.38;35.51
80124;BME280;69433;48.642;9.142;2023-05-01T00:07:11;96910.22;;;24.39;35.63
80124;BME280;69433;48.642;9.142;2023-05-01T00:09:36;96901.81;;;24.37;35.47
80124;BME280;69433;48.642;9.142;2023-05-01T00:12:02;96892.59;;;24.38;35.46
80124;BME280;69433;48.642;9.142;2023-05-01T00:14:28;96897.53;;;24.40;35.77
80124;BME280;69433;48.642;9.142;2023-05-01T00:16:53;96892.59;;;24.38;35.72
80124;BME280;69433;48.642;9.142;2023-05-01T00:19:18;96892.19;;;24.40;35.59
80124;BME280;69433;48.642;9.142;2023-05-01T00:21:47;96891.06;;;24.37;35.54
80124;BME280;69433;48.642;9.142;2023-05-01T00:24:15;96887.22;;;24.38;35.36
80124;BME280;69433;48.642;9.142;2023-05-01T00:26:41;96887.56;;;24.40;35.79
80124;BME280;69433;48.642;9.142;2023-05-01T00:29:06;96884.03;;;24.44;35.62
80124;BME280;69433;48.642;9.142;2023-05-01T00:31:33;96878.22;;;24.45;35.67
80124;BME280;69433;48.642;9.142;2023-05-01T00:33:58;96877.81;;;24.47;35.28
80124;BME280;69433;48.642;9.142;2023-05-01T00:36:23;96872.78;;;24.49;35.60
80124;BME280;69433;48.642;9.142;2023-05-01T00:38:49;96870.09;;;24.49;35.47
80124;BME280;69433;48.642;9.142;2023-05-01T00:41:14;96866.25;;;24.50;35.44
80124;BME280;69433;48.642;9.142;2023-05-01T00:43:42;96871.63;;;24.50;35.60
80124;BME280;69433;48.642;9.142;2023-05-01T00:46:07;96867.75;;;24.51;35.27
80124;BME280;69433;48.642;9.142;2023-05-01T00:48:34;96868.47;;;24.51;35.10
80124;BME280;69433;48.642;9.142;2023-05-01T00:51:00;96858.50;;;24.52;35.30
80124;BME280;69433;48.642;9.142;2023-05-01T00:53:28;96861.19;;;24.52;35.45
80124;BME280;69433;48.642;9.142;2023-05-01T00:55:55;96859.25;;;24.52;35.16
80124;BME280;69433;48.642;9.142;2023-05-01T00:58:21;96861.53;;;24.54;35.46
80124;BME280;69433;48.642;9.142;2023-05-01T01:00:48;96860.00;;;24.53;35.19
80124;BME280;69433;48.642;9.142;2023-05-01T01:03:14;96855.41;;;24.53;35.21
80124;BME280;69433;48.642;9.142;2023-05-01T01:05:44;96857.66;;;24.55;35.21
80124;BME280;69433;48.642;9.142;2023-05-01T01:08:32;96840.03;;;24.54;35.10
80124;BME280;69433;48.642;9.142;2023-05-01T01:11:13;96838.84;;;24.55;35.26
80124;BME280;69433;48.642;9.142;2023-05-01T01:13:42;96840.03;;;24.54;35.11
80124;BME280;69433;48.642;9.142;2023-05-01T01:18:52;96830.78;;;24.55;35.26
80124;BME280;69433;48.642;9.142;2023-05-01T01:21:31;96831.13;;;24.57;35.07
80124;BME280;69433;48.642;9.142;2023-05-01T01:27:17;96829.28;;;24.54;35.33
80124;BME280;69433;48.642;9.142;2023-05-01T01:35:54;96823.56;;;24.52;35.09
80124;BME280;69433;48.642;9.142;2023-05-01T01:38:29;96817.75;;;24.53;35.44
80124;BME280;69433;48.642;9.142;2023-05-01T01:41:11;96817.00;;;24.53;35.05
80124;BME280;69433;48.642;9.142;2023-05-01T01:43:41;96817.00;;;24.53;35.08
80124;BME280;69433;48.642;9.142;2023-05-01T01:46:09;96811.63;;;24.53;35.03
80124;BME280;69433;48.642;9.142;2023-05-01T01:48:39;96819.69;;;24.53;35.40
80124;BME280;69433;48.642;9.142;2023-05-01T01:51:15;96820.03;;;24.55;35.10
80124;BME280;69433;48.642;9.142;2023-05-01T01:53:51;96817.75;;;24.53;35.22
80124;BME280;69433;48.642;9.142;2023-05-01T01:56:19;96810.13;;;24.52;34.97
80124;BME280;69433;48.642;9.142;2023-05-01T01:58:47;96808.63;;;24.51;35.13
80124;BME280;69433;48.642;9.142;2023-05-01T02:01:14;96803.25;;;24.51;35.35
80124;BME280;69433;48.642;9.142;2023-05-01T02:03:41;96800.97;;;24.49;35.38
80124;BME280;69433;48.642;9.142;2023-05-01T02:06:09;96797.19;;;24.47;35.19
80124;BME280;69433;48.642;9.142;2023-05-01T02:08:36;96797.63;;;24.45;35.23
80124;BME280;69433;48.642;9.142;2023-05-01T02:11:03;96794.16;;;24.45;35.15
80124;BME280;69433;48.642;9.142;2023-05-01T02:13:30;96787.28;;;24.44;35.26
80124;BME280;69433;48.642;9.142;2023-05-01T02:15:57;96785.75;;;24.42;35.41
80124;BME280;69433;48.642;9.142;2023-05-01T02:18:25;96784.59;;;24.44;35.44
80124;BME280;69433;48.642;9.142;2023-05-01T02:20:52;96775.00;;;24.42;35.30
80124;BME280;69433;48.642;9.142;2023-05-01T02:23:17;96781.91;;;24.44;35.17
80124;BME280;69433;48.642;9.142;2023-05-01T02:25:44;96782.25;;;24.46;35.16
80124;BME280;69433;48.642;9.142;2023-05-01T02:28:12;96780.31;;;24.46;35.25
80124;BME280;69433;48.642;9.142;2023-05-01T02:30:38;96786.03;;;24.48;35.14
80124;BME280;69433;48.642;9.142;2023-05-01T02:33:06;96782.59;;;24.48;35.17
80124;BME280;69433;48.642;9.142;2023-05-01T02:35:38;96783.00;;;24.46;35.23
80124;BME280;69433;48.642;9.142;2023-05-01T02:38:03;96773.44;;;24.45;35.28
80124;BME280;69433;48.642;9.142;2023-05-01T02:40:29;96781.06;;;24.47;35.09
80124;BME280;69433;48.642;9.142;2023-05-01T02:42:56;96773.78;;;24.47;35.30
80124;BME280;69433;48.642;9.142;2023-05-01T02:45:27;96776.78;;;24.49;34.99
80124;BME280;69433;48.642;9.142;2023-05-01T02:47:55;96778.72;;;24.49;35.00
80124;BME280;69433;48.642;9.142;2023-05-01T02:50:24;96772.19;;;24.50;35.03
80124;BME280;69433;48.642;9.142;2023-05-01T02:52:50;96772.94;;;24.50;35.03
80124;BME280;69433;48.642;9.142;2023-05-01T02:55:16;96773.69;;;24.51;35.31
80124;BME280;69433;48.642;9.142;2023-05-01T02:57:42;96770.66;;;24.49;35.01
80124;BME280;69433;48.642;9.142;2023-05-01T03:00:09;96769.50;;;24.50;35.34
80124;BME280;69433;48.642;9.142;2023-05-01T03:02:38;96760.25;;;24.51;35.19
80124;BME280;69433;48.642;9.142;2023-05-01T03:05:04;96769.50;;;24.50;35.30
80124;BME280;69433;48.642;9.142;2023-05-01T03:07:29;96761.44;;;24.50;35.06
80124;BME280;69433;48.642;9.142;2023-05-01T03:10:02;96764.13;;;24.50;34.97
80124;BME280;69433;48.642;9.142;2023-05-01T03:12:28;96765.63;;;24.51;35.04
80124;BME280;69433;48.642;9.142;2023-05-01T03:14:54;96764.13;;;24.50;35.16
80124;BME280;69433;48.642;9.142;2023-05-01T03:17:19;96764.88;;;24.50;35.09
80124;BME280;69433;48.642;9.142;2023-05-01T03:19:45;96759.50;;;24.50;35.14
80124;BME280;69433;48.642;9.142;2023-05-01T03:22:10;96758.00;;;24.49;34.99
80124;BME280;69433;48.642;9.142;2023-05-01T03:24:35;96761.44;;;24.50;35.21
80124;BME280;69433;48.642;9.142;2023-05-01T03:27:01;96752.59;;;24.49;34.97
80124;BME280;69433;48.642;9.142;2023-05-01T03:29:26;96753.38;;;24.50;34.98
80124;BME280;69433;48.642;9.142;2023-05-01T03:31:52;96747.53;;;24.51;34.92
80124;BME280;69433;48.642;9.142;2023-05-01T03:34:17;96744.97;;;24.48;35.12
80124;BME280;69433;48.642;9.142;2023-05-01T03:36:43;96738.16;;;24.43;35.38
80124;BME280;69433;48.642;9.142;2023-05-01T03:39:08;96745.03;;;24.44;35.36
80124;BME280;69433;48.642;9.142;2023-05-01T03:41:33;96740.53;;;24.41;35.35
80124;BME280;69433;48.642;9.142;2023-05-01T03:43:58;96743.94;;;24.41;35.46
80124;BME280;69433;48.642;9.142;2023-05-01T03:46:26;96736.63;;;24.42;35.44
80124;BME280;69433;48.642;9.142;2023-05-01T03:48:51;96731.72;;;24.40;35.38
80124;BME280;69433;48.642;9.142;2023-05-01T03:51:16;96728.16;;;24.44;35.27
80124;BME280;69433;48.642;9.142;2023-05-01T03:53:42;96735.81;;;24.45;35.23
80124;BME280;69433;48.642;9.142;2023-05-01T03:56:07;96728.09;;;24.47;35.28
80124;BME280;69433;48.642;9.142;2023-05-01T03:58:33;96728.09;;;24.47;35.22
80124;BME280;69433;48.642;9.142;2023-05-01T04:00:58;96732.69;;;24.47;35.35
80124;BME280;69433;48.642;9.142;2023-05-01T04:03:26;96739.94;;;24.50;35.11
80124;BME280;69433;48.642;9.142;2023-05-01T04:05:51;96735.72;;;24.49;35.34
80124;BME280;69433;48.642;9.142;2023-05-01T04:08:17;96736.50;;;24.49;35.00
80124;BME280;69433;48.642;9.142;2023-05-01T04:10:43;96730.69;;;24.51;34.98
80124;BME280;69433;48.642;9.142;2023-05-01T04:13:08;96737.56;;;24.52;35.17
80124;BME280;69433;48.642;9.142;2023-05-01T04:15:35;96742.50;;;24.53;35.02
80124;BME280;69433;48.642;9.142;2023-05-01T04:18:00;96731.88;;;24.50;35.26
80124;BME280;69433;48.642;9.142;2023-05-01T04:20:25;96734.88;;;24.52;35.34
80124;BME280;69433;48.642;9.142;2023-05-01T04:22:51;96736.38;;;24.53;35.24
80124;BME280;69433;48.642;9.142;2023-05-01T04:25:16;96732.94;;;24.52;35.03
80124;BME280;69433;48.642;9.142;2023-05-01T04:27:41;96733.38;;;24.51;35.05
80124;BME280;69433;48.642;9.142;2023-05-01T04:30:07;96735.63;;;24.52;35.00
80124;BME280;69433;48.642;9.142;2023-05-01T04:32:33;96729.50;;;24.52;34.98
80124;BME280;69433;48.642;9.142;2023-05-01T04:34:59;96732.19;;;24.52;35.16
80124;BME280;69433;48.642;9.142;2023-05-01T04:37:25;96735.22;;;24.54;35.37
80124;BME280;69433;48.642;9.142;2023-05-01T04:39:50;96732.94;;;24.52;34.89
80124;BME280;69433;48.642;9.142;2023-05-01T04:42:15;96731.34;;;24.55;35.03
80124;BME280;69433;48.642;9.142;2023-05-01T04:44:41;96736.72;;;24.55;35.18
80124;BME280;69433;48.642;9.142;2023-05-01T04:47:06;96732.53;;;24.54;35.19
80124;BME280;69433;48.642;9.142;2023-05-01T04:49:32;96744.78;;;24.55;35.19
80124;BME280;69433;48.642;9.142;2023-05-01T04:51:58;96736.72;;;24.55;35.14
80124;BME280;69433;48.642;9.142;2023-05-01T04:54:23;96740.59;;;24.54;35.00
80124;BME280;69433;48.642;9.142;2023-05-01T04:56:49;96743.28;;;24.54;35.02
80124;BME280;69433;48.642;9.142;2023-05-01T04:59:15;96735.53;;;24.56;35.24
80124;BME280;69433;48.642;9.142;2023-05-01T05:01:40;96740.16;;;24.55;35.12
80124;BME280;69433;48.642;9.142;2023-05-01T05:04:05;96744.78;;;24.55;34.94
80124;BME280;69433;48.642;9.142;2023-05-01T05:06:32;96750.16;;;24.55;34.95
80124;BME280;69433;48.642;9.142;2023-05-01T05:08:57;96748.66;;;24.54;34.90
80124;BME280;69433;48.642;9.142;2023-05-01T05:11:22;96746.28;;;24.56;35.08
80124;BME280;69433;48.642;9.142;2023-05-01T05:13:48;96752.00;;;24.58;34.83
80124;BME280;69433;48.642;9.142;2023-05-01T05:16:13;96746.28;;;24.56;35.18
80124;BME280;69433;48.642;9.142;2023-05-01T05:18:38;96744.03;;;24.54;35.04
80124;BME280;69433;48.642;9.142;2023-05-01T05:21:05;96745.53;;;24.55;35.21
80124;BME280;69433;48.642;9.142;2023-05-01T05:23:31;96746.72;;;24.54;35.21
80124;BME280;69433;48.642;9.142;2023-05-01T05:25:56;96743.63;;;24.56;34.98
80124;BME280;69433;48.642;9.142;2023-05-01T05:28:26;96747.81;;;24.57;35.07
80124;BME280;69433;48.642;9.142;2023-05-01T05:30:52;96755.53;;;24.55;34.95
80124;BME280;69433;48.642;9.142;2023-05-01T05:33:17;96749.06;;;24.52;35.05
80124;BME280;69433;48.642;9.142;2023-05-01T05:35:43;96744.88;;;24.51;35.11
80124;BME280;69433;48.642;9.142;2023-05-01T05:38:08;96753.38;;;24.50;35.24
80124;BME280;69433;48.642;9.142;2023-05-01T05:40:33;96744.97;;;24.48;35.09
80124;BME280;69433;48.642;9.142;2023-05-01T05:42:58;96747.31;;;24.46;35.42
80124;BME280;69433;48.642;9.142;2023-05-01T05:45:25;96752.34;;;24.44;35.24
80124;BME280;69433;48.642;9.142;2023-05-01T05:47:50;96756.22;;;24.42;35.45
80124;BME280;69433;48.642;9.142;2023-05-01T05:50:16;96755.03;;;24.44;35.38
80124;BME280;69433;48.642;9.142;2023-05-01T05:52:42;96754.28;;;24.43;35.33
80124;BME280;69433;48.642;9.142;2023-05-01T05:55:08;96747.72;;;24.44;35.13
80124;BME280;69433;48.642;9.142;2023-05-01T05:57:33;96750.41;;;24.44;35.37
80124;BME280;69433;48.642;9.142;2023-05-01T06:00:02;96748.47;;;24.45;35.40
80124;BME280;69433;48.642;9.142;2023-05-01T06:02:30;96744.63;;;24.46;35.27
80124;BME280;69433;48.642;9.142;2023-05-01T06:04:55;96751.50;;;24.47;35.08
80124;BME280;69433;48.642;9.142;2023-05-01T06:07:22;96749.31;;;24.41;35.17
80124;BME280;69433;48.642;9.142;2023-05-01T06:09:47;96751.34;;;24.37;35.66
80124;BME280;69433;48.642;9.142;2023-05-01T06:12:13;96753.69;;;24.35;35.66
80124;BME280;69433;48.642;9.142;2023-05-01T06:14:38;96752.19;;;24.34;35.65
80124;BME280;69433;48.642;9.142;2023-05-01T06:17:08;96751.53;;;24.30;35.81
80124;BME280;69433;48.642;9.142;2023-05-01T06:19:34;96749.31;;;24.25;35.51
80124;BME280;69433;48.642;9.142;2023-05-01T06:22:00;96755.13;;;24.24;35.88
80124;BME280;69433;48.642;9.142;2023-05-01T06:24:25;96747.47;;;24.22;35.93
80124;BME280;69433;48.642;9.142;2023-05-01T06:26:51;96749.38;;;24.05;36.02
80124;BME280;69433;48.642;9.142;2023-05-01T06:29:17;96741.78;;;23.84;36.45
80124;BME280;69433;48.642;9.142;2023-05-01T06:31:42;96745.09;;;23.92;36.31
80124;BME280;69433;48.642;9.142;2023-05-01T06:34:07;96758.69;;;24.01;36.16
80124;BME280;69433;48.642;9.142;2023-05-01T06:36:33;96755.09;;;24.08;36.35
80124;BME280;69433;48.642;9.142;2023-05-01T06:38:58;96756.53;;;24.12;36.26
80124;BME280;69433;48.642;9.142;2023-05-01T06:41:23;96756.84;;;24.14;36.02
80124;BME280;69433;48.642;9.142;2023-05-01T06:43:49;96755.69;;;24.15;36.17
80124;BME280;69433;48.642;9.142;2023-05-01T06:46:15;96762.56;;;24.16;36.13
80124;BME280;69433;48.642;9.142;2023-05-01T06:48:40;96765.59;;;24.18;36.09
80124;BME280;69433;48.642;9.142;2023-05-01T06:51:06;96769.97;;;24.12;35.98
80124;BME280;69433;48.642;9.142;2023-05-01T06:53:31;96773.69;;;23.98;36.27
80124;BME280;69433;48.642;9.142;2023-05-01T06:55:56;96769.06;;;23.83;36.08
80124;BME280;69433;48.642;9.142;2023-05-01T06:58:22;96771.69;;;23.66;36.04
80124;BME280;69433;48.642;9.142;2023-05-01T07:00:47;96779.69;;;23.50;36.31
80124;BME280;69433;48.642;9.142;2023-05-01T07:03:12;96778.66;;;23.44;36.19
80124;BME280;69433;48.642;9.142;2023-05-01T07:05:38;96777.94;;;23.40;36.05
80124;BME280;69433;48.642;9.142;2023-05-01T07:08:04;96772.66;;;23.37;35.95
80124;BME280;69433;48.642;9.142;2023-05-01T07:10:30;96780.97;;;23.42;35.81
80124;BME280;69433;48.642;9.142;2023-05-01T07:12:56;96784.56;;;23.55;35.57
80124;BME280;69433;48.642;9.142;2023-05-01T07:15:23;96778.97;;;23.66;35.43
80124;BME280;69433;48.642;9.142;2023-05-01T07:17:49;96779.63;;;23.74;35.10
80124;BME280;69433;48.642;9.142;2023-05-01T07:20:14;96777.94;;;23.80;35.25
80124;BME280;69433;48.642;9.142;2023-05-01T07:22:41;96775.50;;;23.85;35.08
80124;BME280;69433;48.642;9.142;2023-05-01T07:25:07;96775.09;;;23.87;35.30
80124;BME280;69433;48.642;9.142;2023-05-01T07:27:32;96773.53;;;23.89;35.13
80124;BME280;69433;48.642;9.142;2023-05-01T07:29:59;96768.09;;;23.93;35.34
80124;BME280;69433;48.642;9.142;2023-05-01T07:32:24;96758.41;;;23.95;35.30
80124;BME280;69433;48.642;9.142;2023-05-01T07:34:57;96765.72;;;23.95;35.17
80124;BME280;69433;48.642;9.142;2023-05-01T07:37:22;96762.22;;;23.98;35.18
80124;BME280;69433;48.642;9.142;2023-05-01T07:39:49;96762.22;;;23.98;35.11
80124;BME280;69433;48.642;9.142;2023-05-01T07:42:14;96757.59;;;23.98;35.21
80124;BME280;69433;48.642;9.142;2023-05-01T07:44:42;96761.78;;;23.99;35.22
80124;BME280;69433;48.642;9.142;2023-05-01T07:47:07;96755.66;;;23.99;35.29
80124;BME280;69433;48.642;9.142;2023-05-01T07:49:36;96759.88;;;24.00;35.48
80124;BME280;69433;48.642;9.142;2023-05-01T07:52:05;96770.59;;;24.00;35.51
80124;BME280;69433;48.642;9.142;2023-05-01T07:54:32;96759.88;;;24.00;35.60
80124;BME280;69433;48.642;9.142;2023-05-01T07:56:57;96761.03;;;23.99;35.48
80124;BME280;69433;48.642;9.142;2023-05-01T07:59:23;96764.06;;;24.01;35.49
80124;BME280;69433;48.642;9.142;2023-05-01T08:01:49;96765.25;;;24.00;35.38
80124;BME280;69433;48.642;9.142;2023-05-01T08:04:14;96758.69;;;24.01;35.56
80124;BME280;69433;48.642;9.142;2023-05-01T08:06:41;96761.28;;;24.04;35.54
80124;BME280;69433;48.642;9.142;2023-05-01T08:09:06;96771.63;;;24.06;35.49
80124;BME280;69433;48.642;9.142;2023-05-01T08:11:34;96762.38;;;24.07;35.67
80124;BME280;69433;48.642;9.142;2023-05-01T08:13:59;96767.34;;;24.09;35.42
80124;BME280;69433;48.642;9.142;2023-05-01T08:16:25;96767.28;;;24.12;35.75
80124;BME280;69433;48.642;9.142;2023-05-01T08:18:51;96767.59;;;24.14;35.64
80124;BME280;69433;48.642;9.142;2023-05-01T08:21:16;96765.66;;;24.15;35.56
80124;BME280;69433;48.642;9.142;2023-05-01T08:23:41;96759.13;;;24.16;35.42
80124;BME280;69433;48.642;9.142;2023-05-01T08:26:06;96756.00;;;24.17;35.61
80124;BME280;69433;48.642;9.142;2023-05-01T08:28:34;96758.69;;;24.17;35.50
80124;BME280;69433;48.642;9.142;2023-05-01T08:30:59;96754.84;;;24.18;35.47
80124;BME280;69433;48.642;9.142;2023-05-01T08:33:27;96755.19;;;24.20;35.57
80124;BME280;69433;48.642;9.142;2023-05-01T08:35:52;96757.81;;;24.24;35.46
80124;BME280;69433;48.642;9.142;2023-05-01T08:38:17;96756.97;;;24.27;35.91
80124;BME280;69433;48.642;9.142;2023-05-01T08:40:48;96750.44;;;24.28;35.64
80124;BME280;69433;48.642;9.142;2023-05-01T08:43:16;96753.13;;;24.28;35.71
80124;BME280;69433;48.642;9.142;2023-05-01T08:45:43;96751.19;;;24.28;35.66
80124;BME280;69433;48.642;9.142;2023-05-01T08:48:09;96752.28;;;24.31;36.02
80124;BME280;69433;48.642;9.142;2023-05-01T08:50:35;96752.19;;;24.34;35.61
80124;BME280;69433;48.642;9.142;2023-05-01T08:53:03;96754.38;;;24.39;35.85
80124;BME280;69433;48.642;9.142;2023-05-01T08:55:29;96758.47;;;24.44;35.85
80124;BME280;69433;48.642;9.142;2023-05-01T08:57:57;96758.00;;;24.49;35.63
80124;BME280;69433;48.642;9.142;2023-05-01T09:00:23;96760.25;;;24.51;35.69
80124;BME280;69433;48.642;9.142;2023-05-01T09:02:50;96757.88;;;24.53;35.34
80124;BME280;69433;48.642;9.142;2023-05-01T09:05:19;96757.13;;;24.52;35.36
80124;BME280;69433;48.642;9.142;2023-05-01T09:07:47;96753.38;;;24.50;35.30
80124;BME280;69433;48.642;9.142;2023-05-01T09:10:15;96756.06;;;24.50;35.66
80124;BME280;69433;48.642;9.142;2023-05-01T09:12:41;96759.06;;;24.52;35.81
80124;BME280;69433;48.642;9.142;2023-05-01T09:15:10;96760.91;;;24.55;35.49
80124;BME280;69433;48.642;9.142;2023-05-01T09:17:35;96756.97;;;24.59;35.16
80124;BME280;69433;48.642;9.142;2023-05-01T09:20:09;96752.66;;;24.62;34.71
80124;BME280;69433;48.642;9.142;2023-05-01T09:22:34;96754.50;;;24.65;34.44
80124;BME280;69433;48.642;9.142;2023-05-01T09:25:00;96754.94;;;24.63;34.05
80124;BME280;69433;48.642;9.142;2023-05-01T09:27:26;96748.38;;;24.64;33.91
80124;BME280;69433;48.642;9.142;2023-05-01T09:29:52;96752.16;;;24.67;33.69
80124;BME280;69433;48.642;9.142;2023-05-01T09:32:19;96749.16;;;24.65;33.74
80124;BME280;69433;48.642;9.142;2023-05-01T09:34:50;96749.47;;;24.67;33.55
80124;BME280;69433;48.642;9.142;2023-05-01T09:40:11;96748.38;;;24.64;33.49
80124;BME280;69433;48.642;9.142;2023-05-01T09:42:39;96746.44;;;24.65;33.83
80124;BME280;69433;48.642;9.142;2023-05-01T09:45:11;96755.28;;;24.65;33.50
80124;BME280;69433;48.642;9.142;2023-05-01T09:47:38;96747.22;;;24.65;33.77
80124;BME280;69433;48.642;9.142;2023-05-01T09:50:04;96740.31;;;24.64;33.80
80124;BME280;69433;48.642;9.142;2023-05-01T09:52:29;96736.88;;;24.64;33.74
80124;BME280;69433;48.642;9.142;2023-05-01T09:55:16;96742.25;;;24.64;33.49
80124;BME280;69433;48.642;9.142;2023-05-01T09:57:44;96741.84;;;24.65;33.33
80124;BME280;69433;48.642;9.142;2023-05-01T10:00:11;96744.53;;;24.65;33.20
80124;BME280;69433;48.642;9.142;2023-05-01T10:02:40;96745.28;;;24.66;33.39
80124;BME280;69433;48.642;9.142;2023-05-01T10:05:07;96739.16;;;24.65;33.68
80124;BME280;69433;48.642;9.142;2023-05-01T10:07:34;96739.47;;;24.67;33.82
80124;BME280;69433;48.642;9.142;2023-05-01T10:10:19;96745.09;;;24.73;33.66
80124;BME280;69433;48.642;9.142;2023-05-01T10:12:46;96742.75;;;24.75;33.95
80124;BME280;69433;48.642;9.142;2023-05-01T10:15:12;96736.19;;;24.76;33.95
80124;BME280;69433;48.642;9.142;2023-05-01T10:17:38;96744.47;;;24.82;33.66
80124;BME280;69433;48.642;9.142;2023-05-01T10:20:05;96735.00;;;24.77;34.11
80124;BME280;69433;48.642;9.142;2023-05-01T10:22:31;96732.41;;;24.73;34.20
80124;BME280;69433;48.642;9.142;2023-05-01T10:24:56;96734.34;;;24.73;34.01
80124;BME280;69433;48.642;9.142;2023-05-01T10:27:24;96739.97;;;24.78;34.23
80124;BME280;69433;48.642;9.142;2023-05-01T10:29:52;96741.78;;;24.82;34.59
80124;BME280;69433;48.642;9.142;2023-05-01T10:32:17;96742.47;;;24.86;34.28
80124;BME280;69433;48.642;9.142;2023-05-01T10:34:51;96744.41;;;24.85;34.52
80124;BME280;69433;48.642;9.142;2023-05-01T10:37:30;96741.28;;;24.87;34.67
80124;BME280;69433;48.642;9.142;2023-05-01T10:39:58;96740.19;;;24.84;34.48
80124;BME280;69433;48.642;9.142;2023-05-01T10:42:25;96744.81;;;24.84;34.61
80124;BME280;69433;48.642;9.142;2023-05-01T10:44:51;96742.56;;;24.82;34.75
80124;BME280;69433;48.642;9.142;2023-05-01T10:50:09;96745.66;;;24.81;34.55
80124;BME280;69433;48.642;9.142;2023-05-01T10:55:42;96729.72;;;24.73;34.94
80124;BME280;69433;48.642;9.142;2023-05-01T10:58:09;96737.13;;;24.69;35.19
80124;BME280;69433;48.642;9.142;2023-05-01T11:00:34;96729.91;;;24.66;34.97
80124;BME280;69433;48.642;9.142;2023-05-01T11:06:04;96734.28;;;24.60;35.43
80124;BME280;69433;48.642;9.142;2023-05-01T11:08:34;96731.59;;;24.60;35.30
80124;BME280;69433;48.642;9.142;2023-05-01T11:14:07;96728.41;;;24.65;35.39
80124;BME280;69433;48.642;9.142;2023-05-01T11:19:01;96727.63;;;24.65;35.37
80124;BME280;69433;48.642;9.142;2023-05-01T11:21:28;96731.09;;;24.65;35.32
80124;BME280;69433;48.642;9.142;2023-05-01T11:23:54;96727.97;;;24.67;35.57
80124;BME280;69433;48.642;9.142;2023-05-01T11:26:21;96724.13;;;24.68;35.66
80124;BME280;69433;48.642;9.142;2023-05-01T11:28:47;96724.88;;;24.68;35.52
80124;BME280;69433;48.642;9.142;2023-05-01T11:31:19;96727.13;;;24.70;35.26
80124;BME280;69433;48.642;9.142;2023-05-01T11:33:45;96724.44;;;24.70;35.63
80124;BME280;69433;48.642;9.142;2023-05-01T11:36:11;96724.44;;;24.70;35.31
80124;BME280;69433;48.642;9.142;2023-05-01T11:38:36;96724.13;;;24.68;35.51
80124;BME280;69433;48.642;9.142;2023-05-01T11:41:02;96729.06;;;24.69;35.23
80124;BME280;69433;48.642;9.142;2023-05-01T11:43:30;96731.00;;;24.69;35.54
80124;BME280;69433;48.642;9.142;2023-05-01T11:45:56;96731.31;;;24.71;35.62
80124;BME280;69433;48.642;9.142;2023-05-01T11:48:27;96735.94;;;24.70;35.63
80124;BME280;69433;48.642;9.142;2023-05-01T11:50:54;96734.34;;;24.73;35.56
80124;BME280;69433;48.642;9.142;2023-05-01T11:53:19;96725.94;;;24.71;35.42
80124;BME280;69433;48.642;9.142;2023-05-01T11:55:45;96734.34;;;24.73;35.57
80124;BME280;69433;48.642;9.142;2023-05-01T11:58:11;96731.22;;;24.74;35.63
80124;BME280;69433;48.642;9.142;2023-05-01T12:00:38;96726.94;;;24.77;35.63
80124;BME280;69433;48.642;9.142;2023-05-01T12:03:08;96721.47;;;24.81;35.93
80124;BME280;69433;48.642;9.142;2023-05-01T12:05:41;96725.44;;;24.76;36.05
80124;BME280;69433;48.642;9.142;2023-05-01T12:08:20;96714.00;;;24.72;35.93
80124;BME280;69433;48.642;9.142;2023-05-01T12:10:48;96724.44;;;24.70;36.24
80124;BME280;69433;48.642;9.142;2023-05-01T12:13:14;96723.69;;;24.69;35.96
80124;BME280;69433;48.642;9.142;2023-05-01T12:16:06;96716.56;;;24.47;37.53
80124;BME280;69433;48.642;9.142;2023-05-01T12:18:32;96719.78;;;24.25;38.46
80124;BME280;69433;48.642;9.142;2023-05-01T12:20:57;96719.25;;;24.14;38.75
80124;BME280;69433;48.642;9.142;2023-05-01T12:23:49;96716.31;;;24.09;38.95
80124;BME280;69433;48.642;9.142;2023-05-01T12:26:18;96712.88;;;24.08;39.06
80124;BME280;69433;48.642;9.142;2023-05-01T12:28:58;96709.09;;;24.05;39.72
80124;BME280;69433;48.642;9.142;2023-05-01T12:31:25;96708.34;;;24.05;39.56
80124;BME280;69433;48.642;9.142;2023-05-01T12:33:54;96703.72;;;24.05;39.90
80124;BME280;69433;48.642;9.142;2023-05-01T12:36:21;96709.84;;;24.06;39.87
80124;BME280;69433;48.642;9.142;2023-05-01T12:39:07;96704.81;;;24.08;40.04
80124;BME280;69433;48.642;9.142;2023-05-01T12:41:39;96706.00;;;24.07;40.38
80124;BME280;69433;48.642;9.142;2023-05-01T12:44:19;96701.72;;;24.10;40.39
80124;BME280;69433;48.642;9.142;2023-05-01T12:46:52;96703.53;;;24.13;40.46
80124;BME280;69433;48.642;9.142;2023-05-01T12:49:19;96705.81;;;24.14;40.27
80124;BME280;69433;48.642;9.142;2023-05-01T12:51:52;96708.19;;;24.12;40.67
80124;BME280;69433;48.642;9.142;2023-05-01T12:54:35;96705.81;;;24.14;40.86
80124;BME280;69433;48.642;9.142;2023-05-01T12:57:12;96705.81;;;24.14;40.58
80124;BME280;69433;48.642;9.142;2023-05-01T12:59:45;96693.47;;;24.17;41.00
80124;BME280;69433;48.642;9.142;2023-05-01T13:02:12;96696.16;;;24.17;40.72
80124;BME280;69433;48.642;9.142;2023-05-01T13:04:40;96692.72;;;24.16;40.93
80124;BME280;69433;48.642;9.142;2023-05-01T13:07:14;96696.16;;;24.17;40.96
80124;BME280;69433;48.642;9.142;2023-05-01T13:09:54;96694.25;;;24.17;40.65
80124;BME280;69433;48.642;9.142;2023-05-01T13:12:21;96693.91;;;24.15;40.80
80124;BME280;69433;48.642;9.142;2023-05-01T13:14:47;96700.44;;;24.14;40.82
80124;BME280;69433;48.642;9.142;2023-05-01T13:17:23;96702.72;;;24.16;40.61
80124;BME280;69433;48.642;9.142;2023-05-01T13:19:54;96711.13;;;24.18;41.04
80124;BME280;69433;48.642;9.142;2023-05-01T13:22:35;96711.88;;;24.18;41.03
80124;BME280;69433;48.642;9.142;2023-05-01T13:25:14;96707.59;;;24.21;40.94
80124;BME280;69433;48.642;9.142;2023-05-01T13:27:40;96712.97;;;24.21;41.10
80124;BME280;69433;48.642;9.142;2023-05-01T13:30:06;96709.53;;;24.20;41.11
80124;BME280;69433;48.642;9.142;2023-05-01T13:32:32;96707.19;;;24.22;41.28